sensor_id;sensor_type;location;lat;lon;timestamp;P1;durP1;ratioP1;P2;durP2;ratioP2
50821;SDS011;36794;51.212;6.980;2024-01-25T00:01:15;47.50;;;5.83;;
50821;SDS011;36794;51.212;6.980;2024-01-25T00:03:41;44.90;;;6.23;;
50821;SDS011;36794;51.212;6.980;2024-01-25T00:06:07;45.03;;;6.63;;
50821;SDS011;36794;51.212;6.980;2024-01-25T00:08:33;53.80;;;6.93;;
50821;SDS011;36794;51.212;6.980;2024-01-25T00:10:59;48.97;;;7.03;;
50821;SDS011;36794;51.212;6.980;2024-01-25T00:13:25;49.23;;;5.77;;
50821;SDS011;36794;51.212;6.980;2024-01-25T00:15:51;43.90;;;6.20;;
50821;SDS011;36794;51.212;6.980;2024-01-25T00:18:17;45.53;;;5.90;;
50821;SDS011;36794;51.212;6.980;2024-01-25T00:20:43;41.27;;;5.90;;
50821;SDS011;36794;51.212;6.980;2024-01-25T00:23:09;49.73;;;6.27;;
50821;SDS011;36794;51.212;6.980;2024-01-25T00:25:35;42.73;;;5.43;;
50821;SDS011;36794;51.212;6.980;2024-01-25T00:28:01;38.33;;;4.93;;
50821;SDS011;36794;51.212;6.980;2024-01-25T00:30:27;51.13;;;8.10;;
50821;SDS011;36794;51.212;6.980;2024-01-25T00:32:53;40.73;;;5.90;;
50821;SDS011;36794;51.212;6.980;2024-01-25T00:35:19;45.90;;;6.30;;
50821;SDS011;36794;51.212;6.980;2024-01-25T00:37:45;48.07;;;6.93;;
50821;SDS011;36794;51.212;6.980;2024-01-25T00:40:11;44.77;;;6.57;;
50821;SDS011;36794;51.212;6.980;2024-01-25T00:42:45;42.50;;;7.23;;
50821;SDS011;36794;51.212;6.980;2024-01-25T00:45:18;46.47;;;6.30;;
50821;SDS011;36794;51.212;6.980;2024-01-25T00:47:44;49.07;;;6.90;;
50821;SDS011;36794;51.212;6.980;2024-01-25T00:50:10;53.77;;;7.97;;
50821;SDS011;36794;51.212;6.980;2024-01-25T00:52:36;55.00;;;6.70;;
50821;SDS011;36794;51.212;6.980;2024-01-25T00:55:03;45.60;;;6.63;;
50821;SDS011;36794;51.212;6.980;2024-01-25T00:57:29;42.27;;;7.07;;
50821;SDS011;36794;51.212;6.980;2024-01-25T00:59:55;51.53;;;6.73;;
50821;SDS011;36794;51.212;6.980;2024-01-25T01:02:21;45.40;;;7.90;;
50821;SDS011;36794;51.212;6.980;2024-01-25T01:04:48;50.63;;;6.60;;
50821;SDS011;36794;51.212;6.980;2024-01-25T01:07:14;46.13;;;6.97;;
50821;SDS011;36794;51.212;6.980;2024-01-25T01:09:40;45.93;;;5.93;;
50821;SDS011;36794;51.212;6.980;2024-01-25T01:12:06;43.80;;;6.67;;
50821;SDS011;36794;51.212;6.980;2024-01-25T01:14:33;47.33;;;7.33;;
50821;SDS011;36794;51.212;6.980;2024-01-25T01:16:59;41.57;;;6.17;;
50821;SDS011;36794;51.212;6.980;2024-01-25T01:19:25;42.30;;;7.47;;
50821;SDS011;36794;51.212;6.980;2024-01-25T01:21:51;52.10;;;6.67;;
50821;SDS011;36794;51.212;6.980;2024-01-25T01:24:17;48.23;;;6.47;;
50821;SDS011;36794;51.212;6.980;2024-01-25T01:26:43;45.57;;;6.83;;
50821;SDS011;36794;51.212;6.980;2024-01-25T01:29:09;45.97;;;6.23;;
50821;SDS011;36794;51.212;6.980;2024-01-25T01:31:35;46.53;;;6.97;;
50821;SDS011;36794;51.212;6.980;2024-01-25T01:34:01;41.87;;;5.97;;
50821;SDS011;36794;51.212;6.980;2024-01-25T01:36:27;45.67;;;7.27;;
50821;SDS011;36794;51.212;6.980;2024-01-25T01:38:53;43.37;;;5.87;;
50821;SDS011;36794;51.212;6.980;2024-01-25T01:41:19;48.10;;;7.33;;
50821;SDS011;36794;51.212;6.980;2024-01-25T01:43:45;46.00;;;6.33;;
50821;SDS011;36794;51.212;6.980;2024-01-25T01:46:12;48.07;;;6.87;;
50821;SDS011;36794;51.212;6.980;2024-01-25T01:48:38;51.23;;;6.33;;
50821;SDS011;36794;51.212;6.980;2024-01-25T01:51:05;43.07;;;6.33;;
50821;SDS011;36794;51.212;6.980;2024-01-25T01:53:32;56.17;;;6.40;;
50821;SDS011;36794;51.212;6.980;2024-01-25T01:55:58;52.50;;;7.63;;
50821;SDS011;36794;51.212;6.980;2024-01-25T01:58:24;53.53;;;7.37;;
50821;SDS011;36794;51.212;6.980;2024-01-25T02:00:51;54.23;;;7.20;;
50821;SDS011;36794;51.212;6.980;2024-01-25T02:03:18;52.67;;;6.13;;
50821;SDS011;36794;51.212;6.980;2024-01-25T02:05:44;53.13;;;6.03;;
50821;SDS011;36794;51.212;6.980;2024-01-25T02:08:11;51.63;;;7.03;;
50821;SDS011;36794;51.212;6.980;2024-01-25T02:10:37;44.40;;;6.27;;
50821;SDS011;36794;51.212;6.980;2024-01-25T02:13:03;47.47;;;5.63;;
50821;SDS011;36794;51.212;6.980;2024-01-25T02:15:29;42.93;;;6.43;;
50821;SDS011;36794;51.212;6.980;2024-01-25T02:17:55;53.53;;;7.80;;
50821;SDS011;36794;51.212;6.980;2024-01-25T02:20:22;48.13;;;7.10;;
50821;SDS011;36794;51.212;6.980;2024-01-25T02:22:48;45.13;;;5.80;;
50821;SDS011;36794;51.212;6.980;2024-01-25T02:25:14;60.30;;;7.17;;
50821;SDS011;36794;51.212;6.980;2024-01-25T02:27:40;45.10;;;6.53;;
50821;SDS011;36794;51.212;6.980;2024-01-25T02:30:06;51.83;;;7.33;;
50821;SDS011;36794;51.212;6.980;2024-01-25T02:32:32;43.73;;;5.77;;
50821;SDS011;36794;51.212;6.980;2024-01-25T02:34:58;49.70;;;6.73;;
50821;SDS011;36794;51.212;6.980;2024-01-25T02:37:24;50.33;;;7.33;;
50821;SDS011;36794;51.212;6.980;2024-01-25T02:39:50;47.23;;;5.87;;
50821;SDS011;36794;51.212;6.980;2024-01-25T02:42:16;46.93;;;6.80;;
50821;SDS011;36794;51.212;6.980;2024-01-25T02:44:43;40.93;;;7.20;;
50821;SDS011;36794;51.212;6.980;2024-01-25T02:47:09;44.73;;;6.53;;
50821;SDS011;36794;51.212;6.980;2024-01-25T02:49:35;42.67;;;6.87;;
50821;SDS011;36794;51.212;6.980;2024-01-25T02:52:01;43.83;;;7.30;;
50821;SDS011;36794;51.212;6.980;2024-01-25T02:54:27;46.53;;;6.10;;
50821;SDS011;36794;51.212;6.980;2024-01-25T02:56:53;45.40;;;6.93;;
50821;SDS011;36794;51.212;6.980;2024-01-25T02:59:19;47.60;;;7.03;;
50821;SDS011;36794;51.212;6.980;2024-01-25T03:01:46;57.10;;;6.93;;
50821;SDS011;36794;51.212;6.980;2024-01-25T03:04:12;52.37;;;6.87;;
50821;SDS011;36794;51.212;6.980;2024-01-25T03:06:38;40.60;;;5.50;;
50821;SDS011;36794;51.212;6.980;2024-01-25T03:09:04;43.97;;;6.37;;
50821;SDS011;36794;51.212;6.980;2024-01-25T03:11:30;50.20;;;6.73;;
50821;SDS011;36794;51.212;6.980;2024-01-25T03:13:56;46.30;;;5.67;;
50821;SDS011;36794;51.212;6.980;2024-01-25T03:16:22;47.03;;;7.00;;
50821;SDS011;36794;51.212;6.980;2024-01-25T03:18:48;47.73;;;7.30;;
50821;SDS011;36794;51.212;6.980;2024-01-25T03:21:14;44.60;;;6.63;;
50821;SDS011;36794;51.212;6.980;2024-01-25T03:23:40;37.87;;;6.00;;
50821;SDS011;36794;51.212;6.980;2024-01-25T03:26:06;50.90;;;7.20;;
50821;SDS011;36794;51.212;6.980;2024-01-25T03:28:35;48.07;;;5.60;;
50821;SDS011;36794;51.212;6.980;2024-01-25T03:31:02;52.83;;;6.70;;
50821;SDS011;36794;51.212;6.980;2024-01-25T03:33:28;45.33;;;5.37;;
50821;SDS011;36794;51.212;6.980;2024-01-25T03:35:54;55.03;;;7.43;;
50821;SDS011;36794;51.212;6.980;2024-01-25T03:38:20;55.77;;;6.37;;
50821;SDS011;36794;51.212;6.980;2024-01-25T03:40:46;51.10;;;6.67;;
50821;SDS011;36794;51.212;6.980;2024-01-25T03:43:12;56.90;;;6.20;;
50821;SDS011;36794;51.212;6.980;2024-01-25T03:45:38;53.63;;;6.43;;
50821;SDS011;36794;51.212;6.980;2024-01-25T03:48:04;45.83;;;6.77;;
50821;SDS011;36794;51.212;6.980;2024-01-25T03:50:30;48.10;;;6.20;;
50821;SDS011;36794;51.212;6.980;2024-01-25T03:52:56;52.80;;;6.90;;
50821;SDS011;36794;51.212;6.980;2024-01-25T03:55:22;46.20;;;6.20;;
50821;SDS011;36794;51.212;6.980;2024-01-25T03:57:48;53.83;;;7.30;;
50821;SDS011;36794;51.212;6.980;2024-01-25T04:00:14;43.20;;;6.60;;
50821;SDS011;36794;51.212;6.980;2024-01-25T04:02:40;44.13;;;6.80;;
50821;SDS011;36794;51.212;6.980;2024-01-25T04:05:06;54.47;;;6.93;;
50821;SDS011;36794;51.212;6.980;2024-01-25T04:07:33;52.03;;;6.60;;
50821;SDS011;36794;51.212;6.980;2024-01-25T04:09:59;46.53;;;5.97;;
50821;SDS011;36794;51.212;6.980;2024-01-25T04:12:25;58.53;;;6.87;;
50821;SDS011;36794;51.212;6.980;2024-01-25T04:14:51;43.10;;;6.67;;
50821;SDS011;36794;51.212;6.980;2024-01-25T04:17:17;54.27;;;7.03;;
50821;SDS011;36794;51.212;6.980;2024-01-25T04:19:43;54.13;;;7.13;;
50821;SDS011;36794;51.212;6.980;2024-01-25T04:22:09;46.23;;;6.10;;
50821;SDS011;36794;51.212;6.980;2024-01-25T04:24:35;59.43;;;6.50;;
50821;SDS011;36794;51.212;6.980;2024-01-25T04:27:01;52.70;;;6.47;;
50821;SDS011;36794;51.212;6.980;2024-01-25T04:29:27;60.60;;;7.10;;
50821;SDS011;36794;51.212;6.980;2024-01-25T04:31:53;55.40;;;6.40;;
50821;SDS011;36794;51.212;6.980;2024-01-25T04:34:19;49.23;;;6.47;;
50821;SDS011;36794;51.212;6.980;2024-01-25T04:36:45;45.90;;;6.70;;
50821;SDS011;36794;51.212;6.980;2024-01-25T04:39:10;48.07;;;6.00;;
50821;SDS011;36794;51.212;6.980;2024-01-25T04:41:36;55.07;;;6.47;;
50821;SDS011;36794;51.212;6.980;2024-01-25T04:44:02;61.93;;;7.20;;
50821;SDS011;36794;51.212;6.980;2024-01-25T04:46:29;51.73;;;7.13;;
50821;SDS011;36794;51.212;6.980;2024-01-25T04:49:00;55.83;;;7.17;;
50821;SDS011;36794;51.212;6.980;2024-01-25T04:51:26;42.47;;;6.77;;
50821;SDS011;36794;51.212;6.980;2024-01-25T04:53:53;41.77;;;6.27;;
50821;SDS011;36794;51.212;6.980;2024-01-25T04:56:19;50.20;;;7.67;;
50821;SDS011;36794;51.212;6.980;2024-01-25T04:58:44;45.80;;;6.90;;
50821;SDS011;36794;51.212;6.980;2024-01-25T05:01:11;50.27;;;7.37;;
50821;SDS011;36794;51.212;6.980;2024-01-25T05:03:37;44.60;;;7.07;;
50821;SDS011;36794;51.212;6.980;2024-01-25T05:06:03;48.43;;;6.87;;
50821;SDS011;36794;51.212;6.980;2024-01-25T05:08:29;50.30;;;6.20;;
50821;SDS011;36794;51.212;6.980;2024-01-25T05:10:55;53.73;;;7.53;;
50821;SDS011;36794;51.212;6.980;2024-01-25T05:13:21;49.70;;;6.80;;
50821;SDS011;36794;51.212;6.980;2024-01-25T05:15:47;51.30;;;6.53;;
50821;SDS011;36794;51.212;6.980;2024-01-25T05:18:13;66.17;;;7.37;;
50821;SDS011;36794;51.212;6.980;2024-01-25T05:20:39;34.07;;;6.30;;
50821;SDS011;36794;51.212;6.980;2024-01-25T05:23:05;47.00;;;7.03;;
50821;SDS011;36794;51.212;6.980;2024-01-25T05:25:31;47.40;;;7.20;;
50821;SDS011;36794;51.212;6.980;2024-01-25T05:27:57;50.57;;;5.53;;
50821;SDS011;36794;51.212;6.980;2024-01-25T05:30:24;42.13;;;5.63;;
50821;SDS011;36794;51.212;6.980;2024-01-25T05:32:50;45.40;;;6.50;;
50821;SDS011;36794;51.212;6.980;2024-01-25T05:35:18;50.93;;;6.93;;
50821;SDS011;36794;51.212;6.980;2024-01-25T05:37:44;48.10;;;6.00;;
50821;SDS011;36794;51.212;6.980;2024-01-25T05:40:10;55.47;;;6.17;;
50821;SDS011;36794;51.212;6.980;2024-01-25T05:42:37;45.97;;;6.33;;
50821;SDS011;36794;51.212;6.980;2024-01-25T05:45:03;42.93;;;5.67;;
50821;SDS011;36794;51.212;6.980;2024-01-25T05:47:29;44.23;;;6.67;;
50821;SDS011;36794;51.212;6.980;2024-01-25T05:49:55;42.00;;;5.90;;
50821;SDS011;36794;51.212;6.980;2024-01-25T05:52:21;37.87;;;5.07;;
50821;SDS011;36794;51.212;6.980;2024-01-25T05:54:48;45.83;;;6.43;;
50821;SDS011;36794;51.212;6.980;2024-01-25T05:57:14;42.43;;;7.63;;
50821;SDS011;36794;51.212;6.980;2024-01-25T05:59:40;41.00;;;5.80;;
50821;SDS011;36794;51.212;6.980;2024-01-25T06:02:06;34.80;;;5.13;;
50821;SDS011;36794;51.212;6.980;2024-01-25T06:04:33;33.33;;;5.00;;
50821;SDS011;36794;51.212;6.980;2024-01-25T06:06:59;50.47;;;6.23;;
50821;SDS011;36794;51.212;6.980;2024-01-25T06:09:25;41.10;;;5.17;;
50821;SDS011;36794;51.212;6.980;2024-01-25T06:11:51;47.60;;;5.37;;
50821;SDS011;36794;51.212;6.980;2024-01-25T06:14:17;34.93;;;5.13;;
50821;SDS011;36794;51.212;6.980;2024-01-25T06:16:43;44.50;;;6.97;;
50821;SDS011;36794;51.212;6.980;2024-01-25T06:19:09;41.80;;;7.17;;
50821;SDS011;36794;51.212;6.980;2024-01-25T06:21:35;39.40;;;5.60;;
50821;SDS011;36794;51.212;6.980;2024-01-25T06:24:02;40.07;;;6.23;;
50821;SDS011;36794;51.212;6.980;2024-01-25T06:26:28;41.77;;;6.73;;
50821;SDS011;36794;51.212;6.980;2024-01-25T06:28:54;46.83;;;6.67;;
50821;SDS011;36794;51.212;6.980;2024-01-25T06:31:21;47.23;;;7.83;;
50821;SDS011;36794;51.212;6.980;2024-01-25T06:33:47;40.47;;;6.90;;
50821;SDS011;36794;51.212;6.980;2024-01-25T06:36:15;51.07;;;7.73;;
50821;SDS011;36794;51.212;6.980;2024-01-25T06:38:41;55.57;;;5.93;;
50821;SDS011;36794;51.212;6.980;2024-01-25T06:41:08;40.67;;;7.33;;
50821;SDS011;36794;51.212;6.980;2024-01-25T06:43:34;43.70;;;7.53;;
50821;SDS011;36794;51.212;6.980;2024-01-25T06:46:00;46.00;;;6.43;;
50821;SDS011;36794;51.212;6.980;2024-01-25T06:48:26;48.30;;;5.97;;
50821;SDS011;36794;51.212;6.980;2024-01-25T06:50:52;53.60;;;7.90;;
50821;SDS011;36794;51.212;6.980;2024-01-25T06:53:19;45.57;;;6.40;;
50821;SDS011;36794;51.212;6.980;2024-01-25T06:55:44;52.20;;;7.70;;
50821;SDS011;36794;51.212;6.980;2024-01-25T06:58:11;46.47;;;7.20;;
50821;SDS011;36794;51.212;6.980;2024-01-25T07:00:38;50.57;;;7.53;;
50821;SDS011;36794;51.212;6.980;2024-01-25T07:03:04;46.27;;;6.43;;
50821;SDS011;36794;51.212;6.980;2024-01-25T07:05:30;41.70;;;7.13;;
50821;SDS011;36794;51.212;6.980;2024-01-25T07:07:59;49.40;;;6.43;;
50821;SDS011;36794;51.212;6.980;2024-01-25T07:10:24;45.83;;;6.07;;
50821;SDS011;36794;51.212;6.980;2024-01-25T07:12:51;49.90;;;7.03;;
50821;SDS011;36794;51.212;6.980;2024-01-25T07:15:18;47.23;;;7.53;;
50821;SDS011;36794;51.212;6.980;2024-01-25T07:17:44;48.80;;;7.33;;
50821;SDS011;36794;51.212;6.980;2024-01-25T07:20:10;54.73;;;7.63;;
50821;SDS011;36794;51.212;6.980;2024-01-25T07:22:36;51.20;;;6.77;;
50821;SDS011;36794;51.212;6.980;2024-01-25T07:25:02;51.40;;;7.03;;
50821;SDS011;36794;51.212;6.980;2024-01-25T07:27:29;53.57;;;7.30;;
50821;SDS011;36794;51.212;6.980;2024-01-25T07:29:55;50.30;;;7.33;;
50821;SDS011;36794;51.212;6.980;2024-01-25T07:32:21;54.10;;;6.90;;
50821;SDS011;36794;51.212;6.980;2024-01-25T07:34:49;58.63;;;7.70;;
50821;SDS011;36794;51.212;6.980;2024-01-25T07:37:15;59.50;;;7.93;;
50821;SDS011;36794;51.212;6.980;2024-01-25T07:39:41;64.20;;;7.40;;
50821;SDS011;36794;51.212;6.980;2024-01-25T07:42:07;59.70;;;7.23;;
50821;SDS011;36794;51.212;6.980;2024-01-25T07:44:33;53.47;;;6.43;;
50821;SDS011;36794;51.212;6.980;2024-01-25T07:46:59;61.90;;;8.53;;
50821;SDS011;36794;51.212;6.980;2024-01-25T07:49:25;44.20;;;6.97;;
50821;SDS011;36794;51.212;6.980;2024-01-25T07:51:51;58.67;;;8.90;;
50821;SDS011;36794;51.212;6.980;2024-01-25T07:54:17;61.43;;;7.40;;
50821;SDS011;36794;51.212;6.980;2024-01-25T07:56:43;67.83;;;9.70;;
50821;SDS011;36794;51.212;6.980;2024-01-25T07:59:09;60.50;;;8.07;;
50821;SDS011;36794;51.212;6.980;2024-01-25T08:01:35;50.60;;;7.90;;
50821;SDS011;36794;51.212;6.980;2024-01-25T08:04:01;51.67;;;6.90;;
50821;SDS011;36794;51.212;6.980;2024-01-25T08:06:28;59.30;;;8.53;;
50821;SDS011;36794;51.212;6.980;2024-01-25T08:08:54;72.60;;;9.80;;
50821;SDS011;36794;51.212;6.980;2024-01-25T08:11:20;63.70;;;7.43;;
50821;SDS011;36794;51.212;6.980;2024-01-25T08:13:46;65.23;;;8.67;;
50821;SDS011;36794;51.212;6.980;2024-01-25T08:16:13;65.87;;;10.50;;
50821;SDS011;36794;51.212;6.980;2024-01-25T08:18:39;55.70;;;8.97;;
50821;SDS011;36794;51.212;6.980;2024-01-25T08:21:05;60.63;;;8.60;;
50821;SDS011;36794;51.212;6.980;2024-01-25T08:23:31;62.73;;;8.57;;
50821;SDS011;36794;51.212;6.980;2024-01-25T08:25:58;76.37;;;10.60;;
50821;SDS011;36794;51.212;6.980;2024-01-25T08:28:24;65.90;;;8.77;;
50821;SDS011;36794;51.212;6.980;2024-01-25T08:30:50;59.67;;;10.23;;
50821;SDS011;36794;51.212;6.980;2024-01-25T08:33:17;49.33;;;8.13;;
50821;SDS011;36794;51.212;6.980;2024-01-25T08:35:43;62.80;;;9.33;;
50821;SDS011;36794;51.212;6.980;2024-01-25T08:38:09;70.50;;;9.63;;
50821;SDS011;36794;51.212;6.980;2024-01-25T08:40:35;65.07;;;9.07;;
50821;SDS011;36794;51.212;6.980;2024-01-25T08:43:01;63.73;;;10.60;;
50821;SDS011;36794;51.212;6.980;2024-01-25T08:45:26;60.13;;;9.57;;
50821;SDS011;36794;51.212;6.980;2024-01-25T08:47:52;67.83;;;9.73;;
50821;SDS011;36794;51.212;6.980;2024-01-25T08:50:19;63.57;;;9.83;;
50821;SDS011;36794;51.212;6.980;2024-01-25T08:52:45;74.27;;;9.57;;
50821;SDS011;36794;51.212;6.980;2024-01-25T08:55:11;58.17;;;8.90;;
50821;SDS011;36794;51.212;6.980;2024-01-25T08:57:37;59.10;;;9.23;;
50821;SDS011;36794;51.212;6.980;2024-01-25T09:00:04;72.60;;;9.20;;
50821;SDS011;36794;51.212;6.980;2024-01-25T09:02:35;63.43;;;10.13;;
50821;SDS011;36794;51.212;6.980;2024-01-25T09:05:01;55.60;;;9.30;;
50821;SDS011;36794;51.212;6.980;2024-01-25T09:07:28;72.97;;;9.20;;
50821;SDS011;36794;51.212;6.980;2024-01-25T09:09:54;58.70;;;9.63;;
50821;SDS011;36794;51.212;6.980;2024-01-25T09:12:20;64.97;;;9.03;;
50821;SDS011;36794;51.212;6.980;2024-01-25T09:14:46;54.80;;;9.10;;
50821;SDS011;36794;51.212;6.980;2024-01-25T09:17:12;62.67;;;9.57;;
50821;SDS011;36794;51.212;6.980;2024-01-25T09:19:39;59.80;;;9.63;;
50821;SDS011;36794;51.212;6.980;2024-01-25T09:22:06;73.70;;;11.73;;
50821;SDS011;36794;51.212;6.980;2024-01-25T09:24:32;71.87;;;11.10;;
50821;SDS011;36794;51.212;6.980;2024-01-25T09:27:01;65.43;;;10.77;;
50821;SDS011;36794;51.212;6.980;2024-01-25T09:29:27;79.57;;;13.10;;
50821;SDS011;36794;51.212;6.980;2024-01-25T09:31:53;75.23;;;11.80;;
50821;SDS011;36794;51.212;6.980;2024-01-25T09:34:20;68.57;;;11.40;;
50821;SDS011;36794;51.212;6.980;2024-01-25T09:36:46;64.80;;;10.53;;
50821;SDS011;36794;51.212;6.980;2024-01-25T09:39:12;62.93;;;12.57;;
50821;SDS011;36794;51.212;6.980;2024-01-25T09:41:39;64.00;;;11.87;;
50821;SDS011;36794;51.212;6.980;2024-01-25T09:44:07;60.67;;;12.17;;
50821;SDS011;36794;51.212;6.980;2024-01-25T09:46:33;69.87;;;12.67;;
50821;SDS011;36794;51.212;6.980;2024-01-25T09:49:00;80.47;;;13.07;;
50821;SDS011;36794;51.212;6.980;2024-01-25T09:51:26;76.60;;;13.20;;
50821;SDS011;36794;51.212;6.980;2024-01-25T09:53:52;68.30;;;14.00;;
50821;SDS011;36794;51.212;6.980;2024-01-25T09:56:27;83.80;;;15.43;;
50821;SDS011;36794;51.212;6.980;2024-01-25T09:58:56;67.90;;;12.77;;
50821;SDS011;36794;51.212;6.980;2024-01-25T10:01:23;75.00;;;13.93;;
50821;SDS011;36794;51.212;6.980;2024-01-25T10:03:49;67.90;;;13.13;;
50821;SDS011;36794;51.212;6.980;2024-01-25T10:06:21;73.07;;;15.07;;
50821;SDS011;36794;51.212;6.980;2024-01-25T10:08:53;65.13;;;12.23;;
50821;SDS011;36794;51.212;6.980;2024-01-25T10:11:25;77.83;;;15.23;;
50821;SDS011;36794;51.212;6.980;2024-01-25T10:14:00;67.83;;;14.47;;
50821;SDS011;36794;51.212;6.980;2024-01-25T10:16:39;70.30;;;14.47;;
50821;SDS011;36794;51.212;6.980;2024-01-25T10:19:08;72.70;;;14.70;;
50821;SDS011;36794;51.212;6.980;2024-01-25T10:21:37;65.53;;;15.03;;
50821;SDS011;36794;51.212;6.980;2024-01-25T10:24:05;59.40;;;13.70;;
50821;SDS011;36794;51.212;6.980;2024-01-25T10:26:31;69.90;;;13.67;;
50821;SDS011;36794;51.212;6.980;2024-01-25T10:28:57;64.37;;;15.40;;
50821;SDS011;36794;51.212;6.980;2024-01-25T10:31:26;60.37;;;13.83;;
50821;SDS011;36794;51.212;6.980;2024-01-25T10:34:01;65.67;;;15.03;;
50821;SDS011;36794;51.212;6.980;2024-01-25T10:36:27;67.63;;;14.60;;
50821;SDS011;36794;51.212;6.980;2024-01-25T10:38:56;63.53;;;15.03;;
50821;SDS011;36794;51.212;6.980;2024-01-25T10:41:23;58.33;;;15.87;;
50821;SDS011;36794;51.212;6.980;2024-01-25T10:43:50;60.30;;;14.87;;
50821;SDS011;36794;51.212;6.980;2024-01-25T10:46:19;67.13;;;16.07;;
50821;SDS011;36794;51.212;6.980;2024-01-25T10:48:45;59.83;;;16.27;;
50821;SDS011;36794;51.212;6.980;2024-01-25T10:51:11;74.30;;;16.30;;
50821;SDS011;36794;51.212;6.980;2024-01-25T10:53:39;74.37;;;17.83;;
50821;SDS011;36794;51.212;6.980;2024-01-25T10:56:06;57.50;;;16.43;;
50821;SDS011;36794;51.212;6.980;2024-01-25T10:58:32;75.33;;;18.17;;
50821;SDS011;36794;51.212;6.980;2024-01-25T11:01:00;66.93;;;17.60;;
50821;SDS011;36794;51.212;6.980;2024-01-25T11:03:28;63.83;;;16.60;;
50821;SDS011;36794;51.212;6.980;2024-01-25T11:06:07;68.33;;;16.43;;
50821;SDS011;36794;51.212;6.980;2024-01-25T11:08:34;62.27;;;15.30;;
50821;SDS011;36794;51.212;6.980;2024-01-25T11:11:03;78.67;;;16.23;;
50821;SDS011;36794;51.212;6.980;2024-01-25T11:13:29;51.07;;;14.47;;
50821;SDS011;36794;51.212;6.980;2024-01-25T11:15:57;74.20;;;15.80;;
50821;SDS011;36794;51.212;6.980;2024-01-25T11:18:27;58.00;;;13.40;;
50821;SDS011;36794;51.212;6.980;2024-01-25T11:20:53;62.80;;;14.97;;
50821;SDS011;36794;51.212;6.980;2024-01-25T11:23:36;57.60;;;13.87;;
50821;SDS011;36794;51.212;6.980;2024-01-25T11:26:01;59.47;;;13.87;;
50821;SDS011;36794;51.212;6.980;2024-01-25T11:28:27;60.43;;;13.80;;
50821;SDS011;36794;51.212;6.980;2024-01-25T11:30:54;60.93;;;13.50;;
50821;SDS011;36794;51.212;6.980;2024-01-25T11:33:20;58.47;;;12.37;;
50821;SDS011;36794;51.212;6.980;2024-01-25T11:35:54;52.17;;;12.37;;
50821;SDS011;36794;51.212;6.980;2024-01-25T11:38:20;51.00;;;12.02;;
50821;SDS011;36794;51.212;6.980;2024-01-25T11:40:46;61.03;;;13.17;;
50821;SDS011;36794;51.212;6.980;2024-01-25T11:43:12;61.03;;;13.93;;
50821;SDS011;36794;51.212;6.980;2024-01-25T11:45:39;57.23;;;13.57;;
50821;SDS011;36794;51.212;6.980;2024-01-25T11:48:07;49.73;;;12.40;;
50821;SDS011;36794;51.212;6.980;2024-01-25T11:50:33;59.23;;;12.67;;
50821;SDS011;36794;51.212;6.980;2024-01-25T11:53:00;55.07;;;12.13;;
50821;SDS011;36794;51.212;6.980;2024-01-25T11:55:26;55.20;;;13.33;;
50821;SDS011;36794;51.212;6.980;2024-01-25T11:57:52;60.27;;;12.37;;
50821;SDS011;36794;51.212;6.980;2024-01-25T12:00:18;58.33;;;13.17;;
50821;SDS011;36794;51.212;6.980;2024-01-25T12:02:44;55.47;;;12.20;;
50821;SDS011;36794;51.212;6.980;2024-01-25T12:05:10;55.13;;;11.50;;
50821;SDS011;36794;51.212;6.980;2024-01-25T12:07:38;50.27;;;11.07;;
50821;SDS011;36794;51.212;6.980;2024-01-25T12:10:05;57.83;;;12.90;;
50821;SDS011;36794;51.212;6.980;2024-01-25T12:12:32;40.93;;;9.83;;
50821;SDS011;36794;51.212;6.980;2024-01-25T12:15:01;54.20;;;11.27;;
50821;SDS011;36794;51.212;6.980;2024-01-25T12:17:31;61.30;;;13.17;;
50821;SDS011;36794;51.212;6.980;2024-01-25T12:19:57;52.90;;;13.30;;
50821;SDS011;36794;51.212;6.980;2024-01-25T12:22:24;53.13;;;11.87;;
50821;SDS011;36794;51.212;6.980;2024-01-25T12:24:52;56.40;;;14.37;;
50821;SDS011;36794;51.212;6.980;2024-01-25T12:27:19;59.70;;;13.30;;
50821;SDS011;36794;51.212;6.980;2024-01-25T12:29:46;61.23;;;14.37;;
50821;SDS011;36794;51.212;6.980;2024-01-25T12:32:11;57.07;;;14.17;;
50821;SDS011;36794;51.212;6.980;2024-01-25T12:34:38;62.13;;;15.20;;
50821;SDS011;36794;51.212;6.980;2024-01-25T12:37:06;53.23;;;14.23;;
50821;SDS011;36794;51.212;6.980;2024-01-25T12:39:32;56.57;;;15.20;;
50821;SDS011;36794;51.212;6.980;2024-01-25T12:41:58;55.20;;;15.07;;
50821;SDS011;36794;51.212;6.980;2024-01-25T12:44:24;64.07;;;15.07;;
50821;SDS011;36794;51.212;6.980;2024-01-25T12:46:50;63.23;;;15.83;;
50821;SDS011;36794;51.212;6.980;2024-01-25T12:49:17;66.30;;;16.47;;
50821;SDS011;36794;51.212;6.980;2024-01-25T12:51:43;63.23;;;16.13;;
50821;SDS011;36794;51.212;6.980;2024-01-25T12:54:09;63.77;;;15.60;;
50821;SDS011;36794;51.212;6.980;2024-01-25T12:56:35;69.03;;;17.33;;
50821;SDS011;36794;51.212;6.980;2024-01-25T12:59:01;65.93;;;15.93;;
50821;SDS011;36794;51.212;6.980;2024-01-25T13:01:27;57.37;;;15.47;;
50821;SDS011;36794;51.212;6.980;2024-01-25T13:03:53;54.67;;;15.60;;
50821;SDS011;36794;51.212;6.980;2024-01-25T13:06:19;56.73;;;15.63;;
50821;SDS011;36794;51.212;6.980;2024-01-25T13:08:45;55.67;;;15.10;;
50821;SDS011;36794;51.212;6.980;2024-01-25T13:11:11;67.20;;;15.67;;
50821;SDS011;36794;51.212;6.980;2024-01-25T13:13:37;57.83;;;15.87;;
50821;SDS011;36794;51.212;6.980;2024-01-25T13:16:04;57.87;;;15.43;;
50821;SDS011;36794;51.212;6.980;2024-01-25T13:18:30;51.87;;;15.37;;
50821;SDS011;36794;51.212;6.980;2024-01-25T13:20:56;52.50;;;15.20;;
50821;SDS011;36794;51.212;6.980;2024-01-25T13:23:22;53.33;;;14.30;;
50821;SDS011;36794;51.212;6.980;2024-01-25T13:25:48;55.73;;;14.40;;
50821;SDS011;36794;51.212;6.980;2024-01-25T13:28:14;63.47;;;15.27;;
50821;SDS011;36794;51.212;6.980;2024-01-25T13:30:40;65.40;;;15.40;;
50821;SDS011;36794;51.212;6.980;2024-01-25T13:33:05;63.90;;;15.20;;
50821;SDS011;36794;51.212;6.980;2024-01-25T13:35:31;58.03;;;14.60;;
50821;SDS011;36794;51.212;6.980;2024-01-25T13:37:57;64.03;;;15.47;;
50821;SDS011;36794;51.212;6.980;2024-01-25T13:40:26;64.63;;;13.83;;
50821;SDS011;36794;51.212;6.980;2024-01-25T13:42:52;49.43;;;14.50;;
50821;SDS011;36794;51.212;6.980;2024-01-25T13:45:19;55.33;;;13.30;;
50821;SDS011;36794;51.212;6.980;2024-01-25T13:47:46;52.67;;;12.90;;
50821;SDS011;36794;51.212;6.980;2024-01-25T13:50:12;51.00;;;13.37;;
50821;SDS011;36794;51.212;6.980;2024-01-25T13:52:37;56.77;;;14.40;;
50821;SDS011;36794;51.212;6.980;2024-01-25T13:55:03;48.70;;;12.20;;
50821;SDS011;36794;51.212;6.980;2024-01-25T13:57:30;52.93;;;13.37;;
50821;SDS011;36794;51.212;6.980;2024-01-25T13:59:56;51.90;;;11.07;;
50821;SDS011;36794;51.212;6.980;2024-01-25T14:02:22;57.50;;;14.47;;
50821;SDS011;36794;51.212;6.980;2024-01-25T14:04:48;50.87;;;12.83;;
50821;SDS011;36794;51.212;6.980;2024-01-25T14:07:15;53.70;;;10.53;;
50821;SDS011;36794;51.212;6.980;2024-01-25T14:09:44;70.40;;;13.23;;
50821;SDS011;36794;51.212;6.980;2024-01-25T14:12:10;59.37;;;12.43;;
50821;SDS011;36794;51.212;6.980;2024-01-25T14:14:36;57.77;;;11.53;;
50821;SDS011;36794;51.212;6.980;2024-01-25T14:17:03;54.30;;;12.30;;
50821;SDS011;36794;51.212;6.980;2024-01-25T14:19:29;57.33;;;10.70;;
50821;SDS011;36794;51.212;6.980;2024-01-25T14:21:55;47.47;;;9.70;;
50821;SDS011;36794;51.212;6.980;2024-01-25T14:24:21;42.23;;;9.87;;
50821;SDS011;36794;51.212;6.980;2024-01-25T14:26:47;49.43;;;10.70;;